Time,TemperatureF,DewpointF,PressureIn,WindDirection,WindDirectionDegrees,WindSpeedMPH,WindSpeedGustMPH,Humidity,HourlyPrecipIn,Conditions,Clouds,dailyrainin,SoftwareType,DateUTC
2013-09-12 00:05:00,68.8,67.0,29.89,SSE,160,0.0,-999.0,95,-99.99,,,0.21,weatherlink.com 1.10,2013-09-12 04:05:00,
2013-09-12 00:19:00,68.7,67.0,29.89,NNE,32,2.0,-999.0,95,-99.99,,,0.00,weatherlink.com 1.10,2013-09-12 04:19:00,
2013-09-12 00:34:00,68.6,67.0,29.91,NNE,25,3.0,-999.0,95,-99.99,,,0.00,weatherlink.com 1.10,2013-09-12 04:34:00,
2013-09-12 00:49:00,68.6,68.0,29.91,North,5,0.0,-999.0,96,-99.99,,,0.00,weatherlink.com 1.10,2013-09-12 04:49:00,
2013-09-12 01:04:00,68.6,68.0,29.91,North,360,0.0,-999.0,96,-99.99,,,0.00,weatherlink.com 1.10,2013-09-12 05:04:00,
2013-09-12 01:19:00,68.4,67.0,29.89,North,10,0.0,-999.0,96,-99.99,,,0.00,weatherlink.com 1.10,2013-09-12 05:19:00,
2013-09-12 01:35:00,68.3,67.0,29.89,North,10,1.0,-999.0,96,-99.99,,,0.00,weatherlink.com 1.10,2013-09-12 05:35:00,
2013-09-12 01:50:00,68.2,67.0,29.88,North,10,0.0,-999.0,96,-99.99,,,0.00,weatherlink.com 1.10,2013-09-12 05:50:00,
2013-09-12 02:05:00,68.1,67.0,29.88,North,5,0.0,-999.0,96,-99.99,,,0.00,weatherlink.com 1.10,2013-09-12 06:05:00,
2013-09-12 02:21:00,68.2,67.0,29.88,NE,55,0.0,-999.0,96,-99.99,,,0.00,weatherlink.com 1.10,2013-09-12 06:21:00,
2013-09-12 02:35:00,68.2,67.0,29.89,North,5,0.0,-999.0,96,-99.99,,,0.00,weatherlink.com 1.10,2013-09-12 06:35:00,
2013-09-12 02:50:00,68.2,67.0,29.89,NNW,348,0.0,-999.0,96,-99.99,,,0.00,weatherlink.com 1.10,2013-09-12 06:50:00,
2013-09-12 03:05:00,68.2,67.0,29.89,NNW,348,0.0,-999.0,96,-99.99,,,0.00,weatherlink.com 1.10,2013-09-12 07:05:00,
2013-09-12 03:20:00,68.2,67.0,29.89,NNW,348,0.0,-999.0,96,-99.99,,,0.00,weatherlink.com 1.10,2013-09-12 07:20:00,
2013-09-12 03:35:00,68.2,67.0,29.89,NNW,348,0.0,-999.0,96,-99.99,,,0.00,weatherlink.com 1.10,2013-09-12 07:35:00,
2013-09-12 03:50:00,68.1,67.0,29.88,East,84,0.0,-999.0,96,-99.99,,,0.00,weatherlink.com 1.10,2013-09-12 07:50:00,
2013-09-12 04:05:00,68.1,67.0,29.88,SSW,198,0.0,-999.0,96,-99.99,,,0.00,weatherlink.com 1.10,2013-09-12 08:05:00,
2013-09-12 04:20:00,68.1,67.0,29.87,East,90,2.0,-999.0,96,-99.99,,,0.00,weatherlink.com 1.10,2013-09-12 08:20:00,
2013-09-12 04:35:00,68.0,67.0,29.87,ENE,57,0.0,-999.0,96,-99.99,,,0.00,weatherlink.com 1.10,2013-09-12 08:35:00,
2013-09-12 04:50:00,68.0,67.0,29.87,North,360,0.0,-999.0,96,-99.99,,,0.00,weatherlink.com 1.10,2013-09-12 08:50:00,
2013-09-12 05:05:00,68.2,67.0,29.87,ENE,65,1.0,-999.0,96,-99.99,,,0.00,weatherlink.com 1.10,2013-09-12 09:05:00,
2013-09-12 05:20:00,68.4,67.0,29.88,North,355,2.0,-999.0,96,-99.99,,,0.00,weatherlink.com 1.10,2013-09-12 09:20:00,
2013-09-12 05:35:00,68.4,67.0,29.89,NNE,18,0.0,-999.0,96,-99.99,,,0.00,weatherlink.com 1.10,2013-09-12 09:35:00,
2013-09-12 05:50:00,68.3,67.0,29.88,NNE,18,0.0,-999.0,96,-99.99,,,0.00,weatherlink.com 1.10,2013-09-12 09:50:00,
2013-09-12 06:05:00,68.3,67.0,29.88,NNE,18,0.0,-999.0,96,-99.99,,,0.00,weatherlink.com 1.10,2013-09-12 10:05:00,
2013-09-12 06:20:00,68.2,67.0,29.87,NNE,18,0.0,-999.0,96,-99.99,,,0.00,weatherlink.com 1.10,2013-09-12 10:20:00,
2013-09-12 06:35:00,68.2,67.0,29.87,NNE,18,0.0,-999.0,96,-99.99,,,0.00,weatherlink.com 1.10,2013-09-12 10:35:00,
2013-09-12 06:50:00,68.2,67.0,29.86,NNE,17,0.0,-999.0,96,-99.99,,,0.00,weatherlink.com 1.10,2013-09-12 10:50:00,
2013-09-12 07:05:00,68.1,67.0,29.86,NNE,18,0.0,-999.0,96,-99.99,,,0.00,weatherlink.com 1.10,2013-09-12 11:05:00,
2013-09-12 07:20:00,68.2,67.0,29.86,North,5,0.0,-999.0,96,-99.99,,,0.00,weatherlink.com 1.10,2013-09-12 11:20:00,
2013-09-12 07:35:00,68.4,67.0,29.85,North,5,0.0,-999.0,96,-99.99,,,0.00,weatherlink.com 1.10,2013-09-12 11:35:00,
2013-09-12 07:50:00,68.5,67.0,29.85,ENE,76,0.0,-999.0,96,-99.99,,,0.00,weatherlink.com 1.10,2013-09-12 11:50:00,
2013-09-12 08:05:00,68.7,68.0,29.85,NNE,15,0.0,-999.0,96,-99.99,,,0.00,weatherlink.com 1.10,2013-09-12 12:05:00,
2013-09-12 08:20:00,69.0,68.0,29.84,NNE,15,0.0,-999.0,96,-99.99,,,0.02,weatherlink.com 1.10,2013-09-12 12:20:00,
2013-09-12 08:35:00,69.1,68.0,29.83,WNW,292,0.0,-999.0,96,-99.99,,,0.03,weatherlink.com 1.10,2013-09-12 12:35:00,
2013-09-12 08:50:00,69.3,68.0,29.84,North,11,0.0,-999.0,96,-99.99,,,0.04,weatherlink.com 1.10,2013-09-12 12:50:00,
2013-09-12 09:05:00,69.6,69.0,29.83,NNE,30,0.0,-999.0,96,-99.99,,,0.04,weatherlink.com 1.10,2013-09-12 13:05:00,
2013-09-12 09:20:00,69.9,69.0,29.82,North,350,0.0,-999.0,96,-99.99,,,0.04,weatherlink.com 1.10,2013-09-12 13:20:00,
2013-09-12 09:35:00,70.8,69.0,29.82,NE,53,0.0,-999.0,95,-99.99,,,0.04,weatherlink.com 1.10,2013-09-12 13:35:00,
2013-09-12 09:50:00,70.9,69.0,29.82,NNE,19,0.0,-999.0,94,-99.99,,,0.04,weatherlink.com 1.10,2013-09-12 13:50:00,
2013-09-12 10:05:00,71.7,70.0,29.82,NNW,347,1.0,-999.0,94,-99.99,,,0.04,weatherlink.com 1.10,2013-09-12 14:05:00,
2013-09-12 10:20:00,72.8,70.0,29.81,North,5,1.0,-999.0,91,-99.99,,,0.04,weatherlink.com 1.10,2013-09-12 14:20:00,
2013-09-12 10:35:00,73.3,70.0,29.81,NNE,28,0.0,-999.0,89,-99.99,,,0.04,weatherlink.com 1.10,2013-09-12 14:35:00,
2013-09-12 10:50:00,73.9,70.0,29.80,North,10,4.0,-999.0,88,-99.99,,,0.04,weatherlink.com 1.10,2013-09-12 14:50:00,
2013-09-12 11:05:00,74.1,70.0,29.80,ENE,59,4.0,-999.0,88,-99.99,,,0.04,weatherlink.com 1.10,2013-09-12 15:05:00,
2013-09-12 11:20:00,75.7,72.0,29.80,North,355,0.0,-999.0,87,-99.99,,,0.04,weatherlink.com 1.10,2013-09-12 15:20:00,
2013-09-12 11:35:00,76.6,72.0,29.79,North,360,11.0,-999.0,85,-99.99,,,0.04,weatherlink.com 1.10,2013-09-12 15:35:00,
2013-09-12 12:12:00,76.5,71.0,29.77,NNE,12,3.0,-999.0,84,-99.99,,,0.04,weatherlink.com 1.10,2013-09-12 16:12:00,
2013-09-12 12:20:00,78.0,72.0,29.77,West,267,3.0,-999.0,81,-99.99,,,0.04,weatherlink.com 1.10,2013-09-12 16:20:00,
2013-09-12 12:36:00,78.9,73.0,29.76,NNW,346,4.0,-999.0,81,-99.99,,,0.04,weatherlink.com 1.10,2013-09-12 16:36:00,
2013-09-12 12:51:00,78.8,73.0,29.76,NNE,13,5.0,-999.0,81,-99.99,,,0.04,weatherlink.com 1.10,2013-09-12 16:51:00,
2013-09-12 13:06:00,79.4,73.0,29.74,NNE,31,0.0,-999.0,80,-99.99,,,0.04,weatherlink.com 1.10,2013-09-12 17:06:00,
2013-09-12 13:21:00,81.1,74.0,29.73,NE,45,0.0,-999.0,78,-99.99,,,0.04,weatherlink.com 1.10,2013-09-12 17:21:00,
2013-09-12 13:36:00,80.1,73.0,29.72,NNE,32,0.0,-999.0,79,-99.99,,,0.04,weatherlink.com 1.10,2013-09-12 17:36:00,
2013-09-12 13:51:00,79.4,74.0,29.71,NNW,344,5.0,-999.0,82,-99.99,,,0.04,weatherlink.com 1.10,2013-09-12 17:51:00,
2013-09-12 14:06:00,78.4,74.0,29.71,SW,221,0.0,-999.0,86,-99.99,,,0.11,weatherlink.com 1.10,2013-09-12 18:06:00,
2013-09-12 14:21:00,75.1,72.0,29.69,South,174,4.0,-999.0,91,-99.99,,,0.53,weatherlink.com 1.10,2013-09-12 18:21:00,
2013-09-12 14:36:00,71.6,69.0,29.70,East,86,2.0,-999.0,92,-99.99,,,1.22,weatherlink.com 1.10,2013-09-12 18:36:00,
2013-09-12 14:51:00,70.5,69.0,29.70,North,360,0.0,-999.0,94,-99.99,,,1.77,weatherlink.com 1.10,2013-09-12 18:51:00,
2013-09-12 15:06:00,70.7,69.0,29.69,SW,234,0.0,-999.0,95,-99.99,,,1.77,weatherlink.com 1.10,2013-09-12 19:06:00,
2013-09-12 15:21:00,71.0,70.0,29.68,SSW,209,0.0,-999.0,95,-99.99,,,1.77,weatherlink.com 1.10,2013-09-12 19:21:00,
2013-09-12 15:36:00,71.3,70.0,29.69,NNW,329,0.0,-999.0,96,-99.99,,,1.89,weatherlink.com 1.10,2013-09-12 19:36:00,
2013-09-12 15:51:00,71.4,70.0,29.67,SW,233,0.0,-999.0,96,-99.99,,,1.95,weatherlink.com 1.10,2013-09-12 19:51:00,
2013-09-12 16:06:00,70.6,69.0,29.69,WSW,258,0.0,-999.0,95,-99.99,,,2.15,weatherlink.com 1.10,2013-09-12 20:06:00,
2013-09-12 16:21:00,70.3,69.0,29.69,NE,38,0.0,-999.0,96,-99.99,,,2.17,weatherlink.com 1.10,2013-09-12 20:21:00,
2013-09-12 16:36:00,69.7,69.0,29.68,North,11,0.0,-999.0,96,-99.99,,,2.18,weatherlink.com 1.10,2013-09-12 20:36:00,
2013-09-12 16:52:00,69.7,69.0,29.68,North,11,0.0,-999.0,96,-99.99,,,2.18,weatherlink.com 1.10,2013-09-12 20:52:00,
2013-09-12 17:06:00,69.6,69.0,29.68,North,11,0.0,-999.0,96,-99.99,,,2.18,weatherlink.com 1.10,2013-09-12 21:06:00,
2013-09-12 17:21:00,69.8,69.0,29.68,North,11,0.0,-999.0,96,-99.99,,,2.19,weatherlink.com 1.10,2013-09-12 21:21:00,
2013-09-12 17:36:00,69.2,68.0,29.68,North,11,0.0,-999.0,96,-99.99,,,2.19,weatherlink.com 1.10,2013-09-12 21:36:00,
2013-09-12 17:51:00,69.4,68.0,29.67,ENE,60,0.0,-999.0,96,-99.99,,,2.19,weatherlink.com 1.10,2013-09-12 21:51:00,
2013-09-12 18:06:00,69.2,68.0,29.66,NNE,23,0.0,-999.0,96,-99.99,,,2.19,weatherlink.com 1.10,2013-09-12 22:06:00,
2013-09-12 18:22:00,69.3,68.0,29.68,NNE,23,0.0,-999.0,96,-99.99,,,2.20,weatherlink.com 1.10,2013-09-12 22:22:00,
2013-09-12 18:37:00,69.4,68.0,29.68,NNE,23,0.0,-999.0,96,-99.99,,,2.20,weatherlink.com 1.10,2013-09-12 22:37:00,
2013-09-12 18:53:00,68.9,68.0,29.68,North,355,0.0,-999.0,96,-99.99,,,2.20,weatherlink.com 1.10,2013-09-12 22:53:00,
2013-09-12 19:07:00,68.4,67.0,29.69,North,5,1.0,-999.0,96,-99.99,,,2.20,weatherlink.com 1.10,2013-09-12 23:07:00,
2013-09-12 19:22:00,68.2,67.0,29.69,North,360,0.0,-999.0,96,-99.99,,,2.20,weatherlink.com 1.10,2013-09-12 23:22:00,
2013-09-12 19:37:00,68.2,67.0,29.69,NNE,17,0.0,-999.0,96,-99.99,,,2.20,weatherlink.com 1.10,2013-09-12 23:37:00,
2013-09-12 19:52:00,68.1,67.0,29.69,NNW,346,0.0,-999.0,96,-99.99,,,2.21,weatherlink.com 1.10,2013-09-12 23:52:00,
2013-09-12 20:07:00,68.3,68.0,29.68,NNW,346,0.0,-999.0,97,-99.99,,,2.25,weatherlink.com 1.10,2013-09-13 00:07:00,
2013-09-12 20:22:00,68.3,68.0,29.68,NNW,346,0.0,-999.0,97,-99.99,,,2.26,weatherlink.com 1.10,2013-09-13 00:22:00,
2013-09-12 20:37:00,68.2,67.0,29.68,NNW,346,0.0,-999.0,96,-99.99,,,2.26,weatherlink.com 1.10,2013-09-13 00:37:00,
2013-09-12 20:52:00,68.2,67.0,29.68,NNW,346,0.0,-999.0,97,-99.99,,,2.27,weatherlink.com 1.10,2013-09-13 00:52:00,
2013-09-12 21:07:00,68.1,67.0,29.69,NNW,346,0.0,-999.0,97,-99.99,,,2.27,weatherlink.com 1.10,2013-09-13 01:07:00,
2013-09-12 21:22:00,68.0,67.0,29.68,NNW,346,0.0,-999.0,97,-99.99,,,2.27,weatherlink.com 1.10,2013-09-13 01:22:00,
2013-09-12 21:37:00,67.8,67.0,29.68,NNE,30,0.0,-999.0,97,-99.99,,,2.27,weatherlink.com 1.10,2013-09-13 01:37:00,
2013-09-12 21:52:00,67.6,67.0,29.67,NE,52,0.0,-999.0,97,-99.99,,,2.27,weatherlink.com 1.10,2013-09-13 01:52:00,
2013-09-12 22:07:00,67.6,67.0,29.67,NNW,343,0.0,-999.0,97,-99.99,,,2.27,weatherlink.com 1.10,2013-09-13 02:07:00,
2013-09-12 22:22:00,67.5,67.0,29.66,NNE,17,0.0,-999.0,97,-99.99,,,2.27,weatherlink.com 1.10,2013-09-13 02:22:00,
2013-09-12 22:37:00,67.4,67.0,29.66,NNE,17,0.0,-999.0,97,-99.99,,,2.27,weatherlink.com 1.10,2013-09-13 02:37:00,
2013-09-12 22:52:00,67.3,67.0,29.67,NNE,16,0.0,-999.0,97,-99.99,,,2.27,weatherlink.com 1.10,2013-09-13 02:52:00,
2013-09-12 23:07:00,67.2,66.0,29.66,North,5,0.0,-999.0,97,-99.99,,,2.27,weatherlink.com 1.10,2013-09-13 03:07:00,
2013-09-12 23:22:00,67.2,66.0,29.66,NNW,342,0.0,-999.0,97,-99.99,,,2.28,weatherlink.com 1.10,2013-09-13 03:22:00,
2013-09-12 23:37:00,67.2,66.0,29.65,NNW,342,0.0,-999.0,97,-99.99,,,2.28,weatherlink.com 1.10,2013-09-13 03:37:00,
2013-09-12 23:52:00,67.2,66.0,29.65,NNW,342,0.0,-999.0,97,-99.99,,,2.28,weatherlink.com 1.10,2013-09-13 03:52:00,